createdAt,value
2022-09-24T00:00:32.924Z,13.89
2022-09-24T00:03:01.345Z,13.92
2022-09-24T00:05:29.677Z,13.88
2022-09-24T00:07:57.970Z,13.74
2022-09-24T00:10:26.356Z,13.89
2022-09-24T00:12:54.687Z,14.00
2022-09-24T00:15:24.345Z,14.04
2022-09-24T00:17:52.754Z,13.87
2022-09-24T00:20:22.888Z,13.81
2022-09-24T00:22:51.182Z,13.76
2022-09-24T00:25:33.312Z,13.92
2022-09-24T00:28:02.112Z,13.97
2022-09-24T00:30:31.825Z,13.88
2022-09-24T00:33:00.142Z,13.92
2022-09-24T00:35:28.455Z,13.85
2022-09-24T00:37:58.462Z,13.85
2022-09-24T00:40:29.423Z,13.82
2022-09-24T00:42:58.863Z,13.86
2022-09-24T00:45:27.324Z,13.94
2022-09-24T00:47:57.033Z,13.81
2022-09-24T00:50:26.747Z,14.01
2022-09-24T00:52:57.072Z,14.06
2022-09-24T00:55:25.415Z,13.88
2022-09-24T00:57:55.565Z,13.96
2022-09-24T01:00:24.248Z,13.98
2022-09-24T01:02:54.615Z,13.79
2022-09-24T01:05:24.277Z,13.90
2022-09-24T01:07:52.564Z,13.73
2022-09-24T01:10:41.350Z,13.69
2022-09-24T01:13:15.262Z,13.73
2022-09-24T01:15:45.662Z,13.64
2022-09-24T01:18:16.211Z,13.74
2022-09-24T01:20:54.102Z,13.76
2022-09-24T01:23:32.580Z,13.72
2022-09-24T01:26:12.710Z,13.66
2022-09-24T01:28:45.826Z,13.50
2022-09-24T01:31:18.214Z,13.77
2022-09-24T01:33:46.660Z,13.74
2022-09-24T01:36:17.684Z,13.78
2022-09-24T01:38:46.007Z,13.66
2022-09-24T01:41:16.220Z,13.67
2022-09-24T01:43:45.034Z,13.64
2022-09-24T01:46:13.457Z,13.67
2022-09-24T01:48:43.224Z,13.61
2022-09-24T01:51:13.467Z,13.54
2022-09-24T01:53:44.092Z,13.52
2022-09-24T01:56:16.192Z,13.68
2022-09-24T01:58:48.791Z,13.63
2022-09-24T02:01:19.913Z,13.65
2022-09-24T02:03:51.493Z,13.72
2022-09-24T02:06:21.914Z,13.67
2022-09-24T02:08:53.393Z,13.69
2022-09-24T02:11:24.688Z,13.44
2022-09-24T02:13:56.479Z,13.60
2022-09-24T02:16:29.434Z,13.61
2022-09-24T02:19:00.227Z,13.69
2022-09-24T02:21:28.539Z,13.78
2022-09-24T02:23:58.910Z,13.72
2022-09-24T02:26:27.209Z,13.65
2022-09-24T02:28:56.005Z,13.74
2022-09-24T02:31:27.499Z,13.78
2022-09-24T02:34:11.699Z,13.73
2022-09-24T02:36:42.076Z,13.80
2022-09-24T02:39:10.370Z,13.75
2022-09-24T02:41:38.841Z,13.69
2022-09-24T02:44:07.227Z,13.62
2022-09-24T02:46:35.650Z,13.66
2022-09-24T02:49:04.536Z,13.62
2022-09-24T02:51:32.818Z,13.66
2022-09-24T02:54:02.479Z,13.59
2022-09-24T02:56:30.798Z,13.70
2022-09-24T02:58:59.283Z,13.81
2022-09-24T03:01:27.726Z,13.68
2022-09-24T03:03:56.427Z,13.72
2022-09-24T03:06:25.193Z,13.75
2022-09-24T03:08:53.646Z,13.71
2022-09-24T03:11:23.925Z,13.70
2022-09-24T03:13:52.479Z,13.76
2022-09-24T03:16:20.963Z,13.49
2022-09-24T03:18:49.305Z,13.56
2022-09-24T03:21:18.427Z,13.52
2022-09-24T03:23:47.161Z,13.52
2022-09-24T03:26:15.521Z,13.49
2022-09-24T03:28:45.278Z,13.34
2022-09-24T03:31:13.015Z,13.40
2022-09-24T03:33:42.911Z,13.51
2022-09-24T03:36:12.790Z,13.56
2022-09-24T03:38:41.653Z,13.58
2022-09-24T03:41:10.510Z,13.54
2022-09-24T03:43:41.664Z,13.59
2022-09-24T03:46:11.830Z,13.55
2022-09-24T03:48:40.847Z,13.50
2022-09-24T03:51:09.896Z,13.34
2022-09-24T03:53:38.184Z,13.29
2022-09-24T03:56:07.612Z,13.23
2022-09-24T03:58:38.527Z,13.20
2022-09-24T04:01:06.875Z,13.11
2022-09-24T04:03:37.033Z,12.97
2022-09-24T04:06:06.004Z,13.16
2022-09-24T04:08:34.409Z,12.81
2022-09-24T04:11:02.687Z,13.01
2022-09-24T04:13:31.401Z,12.94
2022-09-24T04:16:03.248Z,13.12
2022-09-24T04:18:34.595Z,13.13
2022-09-24T04:21:06.829Z,13.21
2022-09-24T04:23:35.106Z,13.19
2022-09-24T04:26:03.701Z,13.35
2022-09-24T04:28:33.096Z,13.39
2022-09-24T04:31:03.158Z,13.38
2022-09-24T04:33:31.478Z,13.29
2022-09-24T04:35:59.866Z,13.40
2022-09-24T04:38:31.060Z,13.36
2022-09-24T04:41:06.395Z,13.35
2022-09-24T04:43:52.919Z,13.28
2022-09-24T04:46:21.692Z,13.31
2022-09-24T04:48:50.167Z,13.50
2022-09-24T04:51:19.620Z,13.52
2022-09-24T04:53:51.473Z,13.61
2022-09-24T04:56:19.744Z,13.52
2022-09-24T04:58:51.911Z,13.65
2022-09-24T05:01:20.591Z,13.60
2022-09-24T05:03:49.324Z,13.48
2022-09-24T05:06:17.613Z,13.48
2022-09-24T05:08:45.973Z,13.48
2022-09-24T05:11:17.072Z,13.39
2022-09-24T05:13:45.528Z,13.56
2022-09-24T05:16:14.341Z,13.44
2022-09-24T05:18:42.757Z,13.56
2022-09-24T05:21:11.052Z,13.61
2022-09-24T05:23:39.338Z,13.57
2022-09-24T05:26:21.863Z,13.72
2022-09-24T05:28:52.444Z,13.59
2022-09-24T05:31:20.879Z,13.72
2022-09-24T05:33:49.618Z,13.68
2022-09-24T05:36:19.391Z,13.75
2022-09-24T05:38:47.672Z,13.78
2022-09-24T05:41:15.994Z,13.80
2022-09-24T05:43:44.299Z,13.85
2022-09-24T05:46:14.085Z,13.85
2022-09-24T05:48:42.473Z,13.84
2022-09-24T05:51:26.207Z,13.78
2022-09-24T05:53:57.508Z,13.78
2022-09-24T05:56:25.851Z,13.73
2022-09-24T05:58:55.307Z,13.76
2022-09-24T06:01:26.039Z,13.74
2022-09-24T06:03:57.064Z,13.82
2022-09-24T06:06:44.243Z,13.82
2022-09-24T06:09:12.749Z,13.83
2022-09-24T06:11:41.294Z,13.86
2022-09-24T06:14:09.998Z,14.03
2022-09-24T06:16:39.755Z,14.00
2022-09-24T06:19:08.345Z,14.09
2022-09-24T06:24:23.396Z,14.06
2022-09-24T06:26:52.150Z,14.04
2022-09-24T06:29:20.546Z,14.07
2022-09-24T06:31:50.274Z,14.18
2022-09-24T06:34:48.463Z,14.19
2022-09-24T06:37:16.778Z,14.25
2022-09-24T06:39:45.123Z,14.27
2022-09-24T06:42:31.359Z,14.09
2022-09-24T06:44:59.709Z,14.31
2022-09-24T06:47:53.375Z,14.39
2022-09-24T06:50:21.715Z,14.39
2022-09-24T06:52:50.016Z,14.43
2022-09-24T06:55:18.990Z,14.59
2022-09-24T06:57:47.320Z,14.50
2022-09-24T07:00:15.967Z,14.38
2022-09-24T07:02:44.264Z,14.57
2022-09-24T07:05:13.972Z,14.67
2022-09-24T07:07:44.131Z,14.72
2022-09-24T07:10:12.517Z,14.74
2022-09-24T07:12:49.986Z,14.61
2022-09-24T07:15:20.029Z,14.64
2022-09-24T07:18:06.927Z,14.73
2022-09-24T07:20:37.131Z,14.77
2022-09-24T07:23:06.588Z,14.80
2022-09-24T07:25:34.865Z,14.87
2022-09-24T07:28:21.626Z,14.98
2022-09-24T07:30:49.933Z,15.13
2022-09-24T07:33:18.295Z,15.13
2022-09-24T07:35:48.011Z,15.24
2022-09-24T07:38:17.002Z,15.42
2022-09-24T07:40:45.715Z,15.45
2022-09-24T07:43:14.883Z,15.53
2022-09-24T07:45:43.682Z,15.60
2022-09-24T07:48:15.928Z,15.74
2022-09-24T07:50:44.224Z,15.54
2022-09-24T07:53:14.416Z,15.18
2022-09-24T07:55:42.887Z,15.30
2022-09-24T07:58:13.779Z,15.36
2022-09-24T08:00:42.304Z,15.52
2022-09-24T08:03:11.022Z,15.53
2022-09-24T08:05:45.594Z,15.37
2022-09-24T08:08:15.457Z,15.55
2022-09-24T08:10:45.656Z,15.48
2022-09-24T08:13:13.973Z,15.53
2022-09-24T08:15:42.355Z,15.44
2022-09-24T08:18:10.742Z,15.76
2022-09-24T08:20:39.357Z,15.75
2022-09-24T08:23:10.118Z,15.89
2022-09-24T08:25:40.044Z,15.85
2022-09-24T08:28:08.560Z,15.95
2022-09-24T08:30:37.607Z,16.36
2022-09-24T08:33:07.954Z,16.43
2022-09-24T08:35:39.582Z,16.59
2022-09-24T08:38:09.364Z,16.56
2022-09-24T08:40:41.403Z,16.51
2022-09-24T08:43:15.786Z,16.35
2022-09-24T08:45:59.957Z,16.16
2022-09-24T08:48:29.241Z,16.18
2022-09-24T08:51:01.406Z,16.36
2022-09-24T08:53:31.755Z,16.16
2022-09-24T08:56:01.943Z,16.28
2022-09-24T08:58:52.043Z,16.36
2022-09-24T09:01:26.042Z,16.35
2022-09-24T09:03:56.506Z,16.58
2022-09-24T09:06:50.574Z,16.59
2022-09-24T09:09:20.484Z,16.89
2022-09-24T09:14:42.263Z,17.09
2022-09-24T09:17:16.607Z,17.22
2022-09-24T09:19:46.636Z,17.63
2022-09-24T09:22:17.494Z,17.67
2022-09-24T09:24:47.767Z,17.37
2022-09-24T09:27:19.264Z,17.53
2022-09-24T09:29:49.018Z,17.71
2022-09-24T09:32:25.008Z,17.97
2022-09-24T09:34:56.996Z,17.93
2022-09-24T09:37:29.654Z,17.95
2022-09-24T09:40:10.203Z,17.69
2022-09-24T09:42:40.688Z,17.82
2022-09-24T09:45:25.457Z,17.35
2022-09-24T09:47:57.469Z,17.68
2022-09-24T09:50:28.369Z,17.37
2022-09-24T09:52:56.847Z,17.14
2022-09-24T09:55:27.061Z,17.54
2022-09-24T09:58:10.526Z,17.92
2022-09-24T10:00:39.096Z,17.39
2022-09-24T10:03:07.484Z,17.47
2022-09-24T10:05:35.927Z,17.79
2022-09-24T10:08:04.264Z,17.52
2022-09-24T10:10:33.061Z,17.48
2022-09-24T10:13:11.356Z,17.46
2022-09-24T10:15:50.540Z,17.56
2022-09-24T10:18:36.240Z,17.75
2022-09-24T10:21:08.782Z,17.68
2022-09-24T10:23:37.851Z,18.05
2022-09-24T10:26:06.574Z,17.93
2022-09-24T10:28:50.286Z,18.03
2022-09-24T10:31:20.651Z,18.07
2022-09-24T10:33:52.833Z,18.03
2022-09-24T10:36:22.368Z,18.17
2022-09-24T10:39:06.714Z,17.98
2022-09-24T10:41:36.093Z,17.89
2022-09-24T10:44:13.268Z,17.98
2022-09-24T10:47:05.088Z,18.35
2022-09-24T10:49:41.958Z,18.31
2022-09-24T10:52:14.108Z,18.17
2022-09-24T10:54:50.819Z,18.38
2022-09-24T10:57:25.550Z,18.29
2022-09-24T11:00:00.196Z,18.23
2022-09-24T11:02:37.678Z,18.16
2022-09-24T11:05:06.590Z,18.23
2022-09-24T11:07:48.708Z,18.10
2022-09-24T11:10:24.160Z,17.94
2022-09-24T11:13:02.754Z,18.09
2022-09-24T11:15:56.129Z,17.64
2022-09-24T11:18:32.668Z,17.56
2022-09-24T11:21:04.561Z,17.41
2022-09-24T11:23:46.948Z,17.48
2022-09-24T11:26:21.135Z,17.33
2022-09-24T11:29:02.050Z,17.18
2022-09-24T11:31:36.402Z,17.07
2022-09-24T11:34:12.181Z,17.24
2022-09-24T11:36:50.172Z,17.15
2022-09-24T11:39:41.503Z,16.92
2022-09-24T11:42:16.924Z,16.67
2022-09-24T11:44:56.532Z,16.75
2022-09-24T11:47:37.187Z,16.62
2022-09-24T11:50:18.772Z,16.64
2022-09-24T11:52:48.911Z,16.71
2022-09-24T11:55:18.650Z,16.65
2022-09-24T11:57:49.596Z,16.49
2022-09-24T12:00:20.446Z,16.61
2022-09-24T12:02:51.922Z,16.53
2022-09-24T12:05:25.331Z,16.60
2022-09-24T12:07:56.912Z,16.53
2022-09-24T12:10:31.088Z,16.37
2022-09-24T12:13:04.674Z,16.30
2022-09-24T12:15:40.584Z,16.48
2022-09-24T12:18:28.826Z,16.47
2022-09-24T12:21:01.720Z,16.53
2022-09-24T12:23:33.806Z,16.70
2022-09-24T12:26:20.468Z,16.56
2022-09-24T12:29:23.133Z,16.15
2022-09-24T12:32:40.936Z,16.49
2022-09-24T12:35:13.948Z,16.71
2022-09-24T12:37:43.605Z,16.67
2022-09-24T12:40:23.265Z,16.71
2022-09-24T12:42:52.466Z,16.75
2022-09-24T12:45:22.663Z,16.61
2022-09-24T12:47:51.963Z,16.77
2022-09-24T12:50:24.036Z,16.41
2022-09-24T12:52:56.238Z,16.79
2022-09-24T12:55:28.381Z,17.02
2022-09-24T12:57:59.890Z,16.76
2022-09-24T13:00:38.962Z,17.02
2022-09-24T13:03:09.157Z,16.93
2022-09-24T13:05:49.550Z,16.81
2022-09-24T13:08:26.262Z,16.82
2022-09-24T13:10:57.434Z,16.92
2022-09-24T13:13:27.198Z,17.05
2022-09-24T13:16:05.717Z,17.04
2022-09-24T13:18:36.613Z,16.88
2022-09-24T13:21:07.409Z,16.96
2022-09-24T13:23:46.741Z,16.96
2022-09-24T13:26:27.969Z,17.00
2022-09-24T13:29:01.918Z,16.85
2022-09-24T13:31:42.165Z,16.84
2022-09-24T13:37:30.360Z,16.95
2022-09-24T13:40:00.037Z,16.89
2022-09-24T13:42:33.304Z,16.97
2022-09-24T13:45:06.289Z,16.93
2022-09-24T13:47:38.930Z,16.95
2022-09-24T13:50:10.154Z,16.94
2022-09-24T13:52:41.664Z,17.13
2022-09-24T13:55:13.234Z,17.06
2022-09-24T14:00:31.719Z,16.89
2022-09-24T14:03:03.858Z,17.06
2022-09-24T14:05:53.547Z,16.75
2022-09-24T14:08:24.452Z,16.48
2022-09-24T14:11:24.944Z,16.77
2022-09-24T14:13:56.511Z,16.81
2022-09-24T14:16:25.180Z,16.45
2022-09-24T14:19:02.561Z,16.06
2022-09-24T14:21:47.840Z,16.28
2022-09-24T14:24:20.463Z,16.35
2022-09-24T14:26:50.658Z,16.36
2022-09-24T14:29:20.079Z,16.03
2022-09-24T14:31:52.918Z,16.16
2022-09-24T14:34:26.766Z,15.88
2022-09-24T14:36:55.876Z,16.05
2022-09-24T14:39:27.323Z,16.00
2022-09-24T14:41:55.613Z,16.15
2022-09-24T14:44:24.763Z,16.16
2022-09-24T14:46:53.688Z,16.12
2022-09-24T14:49:23.466Z,15.93
2022-09-24T14:51:54.812Z,15.97
2022-09-24T14:54:30.406Z,15.95
2022-09-24T14:57:09.798Z,15.63
2022-09-24T14:59:38.779Z,15.71
2022-09-24T15:02:15.972Z,15.72
2022-09-24T15:04:47.098Z,15.84
2022-09-24T15:07:19.531Z,15.83
2022-09-24T15:09:52.669Z,15.92
2022-09-24T15:12:22.912Z,15.79
2022-09-24T15:14:56.428Z,15.82
2022-09-24T15:17:27.111Z,15.63
2022-09-24T15:19:58.021Z,15.64
2022-09-24T15:22:28.272Z,15.73
2022-09-24T15:25:01.937Z,15.61
2022-09-24T15:27:32.343Z,15.59
2022-09-24T15:30:01.886Z,15.63
2022-09-24T15:32:48.348Z,15.62
2022-09-24T15:35:16.794Z,15.60
2022-09-24T15:37:45.135Z,15.60
2022-09-24T15:40:23.377Z,15.62
2022-09-24T15:42:52.653Z,15.50
2022-09-24T15:45:22.739Z,15.54
2022-09-24T15:47:51.238Z,15.38
2022-09-24T15:50:19.572Z,15.50
2022-09-24T15:52:49.728Z,15.70
2022-09-24T15:55:20.531Z,15.51
2022-09-24T15:57:49.216Z,15.45
2022-09-24T16:00:21.128Z,15.40
2022-09-24T16:02:51.050Z,15.47
2022-09-24T16:05:19.527Z,15.48
2022-09-24T16:07:48.116Z,15.35
2022-09-24T16:10:17.526Z,15.26
2022-09-24T16:12:47.604Z,15.22
2022-09-24T16:15:16.746Z,15.16
2022-09-24T16:17:45.115Z,15.12
2022-09-24T16:20:14.091Z,15.12
2022-09-24T16:22:42.382Z,14.99
2022-09-24T16:25:30.746Z,15.04
2022-09-24T16:28:00.702Z,14.92
2022-09-24T16:30:33.975Z,14.94
2022-09-24T16:33:06.433Z,14.96
2022-09-24T16:35:34.768Z,14.96
2022-09-24T16:38:03.299Z,15.06
2022-09-24T16:40:33.109Z,14.84
2022-09-24T16:43:02.878Z,14.87
2022-09-24T16:45:32.545Z,14.80
2022-09-24T16:48:03.630Z,14.88
2022-09-24T16:50:32.052Z,14.67
2022-09-24T16:53:00.804Z,14.39
2022-09-24T16:55:29.579Z,14.57
2022-09-24T16:58:00.677Z,14.48
2022-09-24T17:00:30.393Z,14.47
2022-09-24T17:02:59.859Z,14.48
2022-09-24T17:05:28.304Z,14.55
2022-09-24T17:07:56.847Z,14.62
2022-09-24T17:10:24.469Z,14.57
2022-09-24T17:15:39.630Z,14.67
2022-09-24T17:18:08.026Z,14.49
2022-09-24T17:20:36.401Z,14.45
2022-09-24T17:23:04.720Z,14.52
2022-09-24T17:25:33.052Z,14.51
2022-09-24T17:28:02.638Z,14.49
2022-09-24T17:30:32.261Z,14.39
2022-09-24T17:33:08.106Z,14.43
2022-09-24T17:35:43.349Z,14.41
2022-09-24T17:38:11.669Z,14.39
2022-09-24T17:40:57.729Z,14.33
2022-09-24T17:43:26.514Z,14.40
2022-09-24T17:45:58.565Z,14.29
2022-09-24T17:48:30.520Z,14.30
2022-09-24T17:51:19.410Z,14.26
2022-09-24T17:53:48.082Z,14.20
2022-09-24T17:56:17.032Z,14.26
2022-09-24T17:58:47.030Z,14.25
2022-09-24T18:01:17.632Z,14.33
2022-09-24T18:03:48.952Z,14.28
2022-09-24T18:06:17.277Z,14.19
2022-09-24T18:08:46.739Z,14.17
2022-09-24T18:11:15.977Z,14.23
2022-09-24T18:13:44.320Z,14.27
2022-09-24T18:16:13.618Z,14.28
2022-09-24T18:18:42.311Z,14.13
2022-09-24T18:21:13.414Z,14.30
2022-09-24T18:23:41.760Z,14.20
2022-09-24T18:26:11.985Z,14.30
2022-09-24T18:28:40.809Z,14.20
2022-09-24T18:31:10.560Z,14.23
2022-09-24T18:33:40.967Z,14.21
2022-09-24T18:36:12.060Z,14.19
2022-09-24T18:38:40.346Z,14.20
2022-09-24T18:41:10.600Z,14.19
2022-09-24T18:43:38.980Z,14.16
2022-09-24T18:46:09.130Z,13.98
2022-09-24T18:48:37.549Z,14.09
2022-09-24T18:51:06.068Z,14.08
2022-09-24T18:53:35.966Z,14.09
2022-09-24T18:56:05.806Z,14.17
2022-09-24T18:58:34.134Z,14.05
2022-09-24T19:01:02.897Z,14.16
2022-09-24T19:03:31.876Z,14.10
2022-09-24T19:06:02.250Z,14.04
2022-09-24T19:08:36.602Z,14.02
2022-09-24T19:11:07.863Z,14.10
2022-09-24T19:13:36.728Z,14.05
2022-09-24T19:16:06.566Z,13.97
2022-09-24T19:18:35.756Z,13.98
2022-09-24T19:21:06.687Z,13.99
2022-09-24T19:23:37.849Z,14.01
2022-09-24T19:26:25.518Z,13.94
2022-09-24T19:28:54.008Z,13.86
2022-09-24T19:31:23.263Z,13.82
2022-09-24T19:33:51.844Z,13.88
2022-09-24T19:36:20.201Z,13.86
2022-09-24T19:38:49.201Z,13.93
2022-09-24T19:41:24.673Z,13.89
2022-09-24T19:43:54.299Z,13.87
2022-09-24T19:46:24.398Z,13.75
2022-09-24T19:48:53.133Z,13.83
2022-09-24T19:51:24.184Z,13.78
2022-09-24T19:53:55.671Z,13.71
2022-09-24T19:56:25.687Z,13.72
2022-09-24T19:58:54.343Z,13.67
2022-09-24T20:01:23.342Z,13.58
2022-09-24T20:03:52.888Z,13.61
2022-09-24T20:06:23.005Z,13.59
2022-09-24T20:08:51.298Z,13.63
2022-09-24T20:11:22.631Z,13.53
2022-09-24T20:13:53.216Z,13.47
2022-09-24T20:16:22.558Z,13.49
2022-09-24T20:18:51.365Z,13.41
2022-09-24T20:21:20.227Z,13.53
2022-09-24T20:23:49.897Z,13.49
2022-09-24T20:26:33.082Z,13.49
2022-09-24T20:29:03.348Z,13.55
2022-09-24T20:31:31.759Z,13.52
2022-09-24T20:34:01.077Z,13.51
2022-09-24T20:36:29.428Z,13.53
2022-09-24T20:38:59.033Z,13.56
2022-09-24T20:41:46.407Z,13.60
2022-09-24T20:44:16.165Z,13.60
2022-09-24T20:46:44.797Z,13.61
2022-09-24T20:49:18.754Z,13.61
2022-09-24T20:51:47.137Z,13.66
2022-09-24T20:54:15.595Z,13.59
2022-09-24T20:56:44.071Z,13.59
2022-09-24T20:59:12.398Z,13.48
2022-09-24T21:01:42.794Z,13.49
2022-09-24T21:04:11.281Z,13.49
2022-09-24T21:06:42.754Z,13.45
2022-09-24T21:09:12.371Z,13.49
2022-09-24T21:11:42.119Z,13.41
2022-09-24T21:14:11.341Z,13.43
2022-09-24T21:16:41.345Z,13.42
2022-09-24T21:19:09.654Z,13.38
2022-09-24T21:21:39.236Z,13.34
2022-09-24T21:24:10.049Z,13.38
2022-09-24T21:26:38.997Z,13.48
2022-09-24T21:29:09.349Z,13.53
2022-09-24T21:31:38.741Z,13.41
2022-09-24T21:34:08.593Z,13.49
2022-09-24T21:36:43.727Z,13.47
2022-09-24T21:39:15.075Z,13.42
2022-09-24T21:41:46.262Z,13.47
2022-09-24T21:44:17.494Z,13.44
2022-09-24T21:46:45.926Z,13.39
2022-09-24T21:49:17.360Z,13.41
2022-09-24T21:52:03.248Z,13.38
2022-09-24T21:54:32.361Z,13.33
2022-09-24T21:57:00.891Z,13.42
2022-09-24T21:59:45.086Z,13.33
2022-09-24T22:02:14.006Z,13.41
2022-09-24T22:04:44.546Z,13.31
2022-09-24T22:07:12.937Z,13.31
2022-09-24T22:09:41.269Z,13.24
2022-09-24T22:12:09.848Z,13.30
2022-09-24T22:14:38.445Z,13.35
2022-09-24T22:17:25.123Z,13.45
2022-09-24T22:19:54.795Z,13.39
2022-09-24T22:22:23.447Z,13.31
2022-09-24T22:24:51.806Z,13.41
2022-09-24T22:27:20.242Z,13.34
2022-09-24T22:29:48.567Z,13.34
2022-09-24T22:32:16.847Z,13.29
2022-09-24T22:34:59.423Z,13.23
2022-09-24T22:37:31.306Z,13.21
2022-09-24T22:40:18.366Z,13.11
2022-09-24T22:42:46.784Z,13.15
2022-09-24T22:45:15.242Z,13.15
2022-09-24T22:47:43.866Z,13.11
2022-09-24T22:50:12.200Z,13.15
2022-09-24T22:52:41.920Z,13.07
2022-09-24T22:55:11.070Z,13.10
2022-09-24T22:57:41.226Z,12.99
2022-09-24T23:00:10.628Z,12.96
2022-09-24T23:02:38.927Z,12.97
2022-09-24T23:05:07.698Z,13.03
2022-09-24T23:07:55.591Z,12.98
2022-09-24T23:10:24.303Z,12.98
2022-09-24T23:12:52.632Z,12.89
2022-09-24T23:15:20.972Z,12.93
2022-09-24T23:17:49.271Z,12.87
2022-09-24T23:20:17.962Z,12.93
2022-09-24T23:25:33.142Z,12.92
2022-09-24T23:28:02.017Z,12.98
2022-09-24T23:30:30.336Z,12.95
2022-09-24T23:32:59.232Z,12.91
2022-09-24T23:35:27.529Z,12.94
2022-09-24T23:37:55.801Z,12.95
2022-09-24T23:40:24.211Z,12.91
2022-09-24T23:42:54.330Z,12.88
2022-09-24T23:45:23.101Z,12.96
2022-09-24T23:47:51.415Z,13.00
2022-09-24T23:50:20.025Z,12.92
2022-09-24T23:52:48.290Z,13.01
2022-09-24T23:55:35.144Z,12.90
